Pagrindinis puslapis
METAR-TAF:

METAR-TAF

Oro uostai :

Širazas, Iranas

platuma: 29-32N, ilguma: 052-35E, Aukštis: 1486 m

Dabartinis oras

Ataskaita buvo paskelbta 33 minutes, ne 19:30 UTC
Ramus vėjas
Temperatūra 32°C
Drėgmė 11%
Slėgis 1011 hPa
Matomumas 10 km arba daugiau
nėra debesų žemiau 1500 m ir nėra kamuolinių lietaus debesų

METAR: OISS 171930Z 00000KT CAVOK 32/M02 Q1010 A2984

Laikas: 00:33 (20:03 UTC)

Prognozė

Ataskaita buvo paskelbta 2 valandos ir 53 minutes, ne 17:10 UTC
Prognozė galioja nuo 17 metu 18 UTC su 18 metu 24 UTC
Vėjas 8 kt iš Vakarų/Šiaurės Vakarų
Matomumas: 8000 m
Laikinai
nuo 18 metu 09 UTC su 18 metu 16 UTC
Vėjas 18 kt iš Rytų

TAF: OISS 171710Z 1718/1824 30008KT 8000 NSC TEMPO 1809/1816 10018KT

Orai ataskaitas ir orų prognozės (METAR, TAF).

turimą stotys yra geltonos ir raudonos taškus žemėlapyje.

Perkelti pele per norėdami pamatyti stoties vardą.

Tada spustelėkite, norėdami matyti oro stebėjimo ir prognozės.

Norėdami pakeisti žemėlapį: spustelėkite ant žalios mygtukų su juodo kryžiaus žemyn,; žalią mygtuką su brūkšneliu, jei norite nutolinti; arba žalių rodyklių gretimoms žemėlapius.


METAR-TAF: